sensor_id;sensor_type;location;lat;lon;timestamp;P1;durP1;ratioP1;P2;durP2;ratioP2
46110;SDS011;31849;55.992;37.252;2023-10-31T00:04:45;8.55;;;5.57;;
46110;SDS011;31849;55.992;37.252;2023-10-31T00:14:52;10.23;;;5.30;;
46110;SDS011;31849;55.992;37.252;2023-10-31T00:19:57;9.77;;;5.47;;
46110;SDS011;31849;55.992;37.252;2023-10-31T00:25:00;9.07;;;5.70;;
46110;SDS011;31849;55.992;37.252;2023-10-31T00:30:05;9.15;;;5.45;;
46110;SDS011;31849;55.992;37.252;2023-10-31T00:35:11;7.90;;;5.10;;
46110;SDS011;31849;55.992;37.252;2023-10-31T00:40:14;7.85;;;4.57;;
46110;SDS011;31849;55.992;37.252;2023-10-31T00:45:19;8.20;;;4.90;;
46110;SDS011;31849;55.992;37.252;2023-10-31T00:50:24;7.03;;;4.72;;
46110;SDS011;31849;55.992;37.252;2023-10-31T00:55:28;6.43;;;4.57;;
46110;SDS011;31849;55.992;37.252;2023-10-31T01:00:31;5.10;;;4.28;;
46110;SDS011;31849;55.992;37.252;2023-10-31T01:05:37;6.78;;;4.30;;
46110;SDS011;31849;55.992;37.252;2023-10-31T01:10:40;6.50;;;4.20;;
46110;SDS011;31849;55.992;37.252;2023-10-31T01:15:44;6.97;;;4.63;;
46110;SDS011;31849;55.992;37.252;2023-10-31T01:20:49;6.50;;;4.63;;
46110;SDS011;31849;55.992;37.252;2023-10-31T01:25:53;6.00;;;4.00;;
46110;SDS011;31849;55.992;37.252;2023-10-31T01:30:56;5.50;;;3.72;;
46110;SDS011;31849;55.992;37.252;2023-10-31T01:36:01;8.32;;;4.22;;
46110;SDS011;31849;55.992;37.252;2023-10-31T01:41:05;5.80;;;4.20;;
46110;SDS011;31849;55.992;37.252;2023-10-31T01:46:09;6.30;;;3.88;;
46110;SDS011;31849;55.992;37.252;2023-10-31T01:51:14;5.57;;;4.00;;
46110;SDS011;31849;55.992;37.252;2023-10-31T01:56:18;9.45;;;4.65;;
46110;SDS011;31849;55.992;37.252;2023-10-31T02:01:23;6.38;;;4.20;;
46110;SDS011;31849;55.992;37.252;2023-10-31T02:06:28;6.30;;;4.10;;
46110;SDS011;31849;55.992;37.252;2023-10-31T02:11:32;6.38;;;4.38;;
46110;SDS011;31849;55.992;37.252;2023-10-31T02:16:35;5.43;;;4.15;;
46110;SDS011;31849;55.992;37.252;2023-10-31T02:21:40;7.55;;;4.03;;
46110;SDS011;31849;55.992;37.252;2023-10-31T02:26:44;7.75;;;4.50;;
46110;SDS011;31849;55.992;37.252;2023-10-31T02:31:48;8.65;;;4.43;;
46110;SDS011;31849;55.992;37.252;2023-10-31T02:36:53;7.57;;;4.20;;
46110;SDS011;31849;55.992;37.252;2023-10-31T02:41:56;7.82;;;4.30;;
46110;SDS011;31849;55.992;37.252;2023-10-31T02:47:00;5.80;;;4.25;;
46110;SDS011;31849;55.992;37.252;2023-10-31T02:52:05;7.90;;;5.00;;
46110;SDS011;31849;55.992;37.252;2023-10-31T02:57:09;7.88;;;4.97;;
46110;SDS011;31849;55.992;37.252;2023-10-31T03:02:12;7.25;;;4.60;;
46110;SDS011;31849;55.992;37.252;2023-10-31T03:07:17;8.10;;;4.37;;
46110;SDS011;31849;55.992;37.252;2023-10-31T03:12:21;6.55;;;4.20;;
46110;SDS011;31849;55.992;37.252;2023-10-31T03:17:25;6.50;;;4.22;;
46110;SDS011;31849;55.992;37.252;2023-10-31T03:22:31;6.90;;;4.40;;
46110;SDS011;31849;55.992;37.252;2023-10-31T03:32:38;8.82;;;5.50;;
46110;SDS011;31849;55.992;37.252;2023-10-31T03:37:43;5.30;;;4.10;;
46110;SDS011;31849;55.992;37.252;2023-10-31T03:42:47;9.10;;;5.30;;
46110;SDS011;31849;55.992;37.252;2023-10-31T03:47:50;10.70;;;5.07;;
46110;SDS011;31849;55.992;37.252;2023-10-31T03:52:55;9.45;;;6.70;;
46110;SDS011;31849;55.992;37.252;2023-10-31T03:57:59;7.18;;;4.60;;
46110;SDS011;31849;55.992;37.252;2023-10-31T04:03:02;11.43;;;4.75;;
46110;SDS011;31849;55.992;37.252;2023-10-31T04:08:07;19.67;;;5.45;;
46110;SDS011;31849;55.992;37.252;2023-10-31T04:13:11;9.07;;;6.00;;
46110;SDS011;31849;55.992;37.252;2023-10-31T04:18:14;16.15;;;10.73;;
46110;SDS011;31849;55.992;37.252;2023-10-31T04:23:20;10.43;;;6.60;;
46110;SDS011;31849;55.992;37.252;2023-10-31T04:28:23;10.45;;;6.60;;
46110;SDS011;31849;55.992;37.252;2023-10-31T04:33:27;12.32;;;8.43;;
46110;SDS011;31849;55.992;37.252;2023-10-31T04:38:32;23.30;;;16.55;;
46110;SDS011;31849;55.992;37.252;2023-10-31T04:43:35;20.75;;;14.25;;
46110;SDS011;31849;55.992;37.252;2023-10-31T04:48:38;17.45;;;9.18;;
46110;SDS011;31849;55.992;37.252;2023-10-31T04:53:43;9.75;;;7.18;;
46110;SDS011;31849;55.992;37.252;2023-10-31T05:03:50;37.13;;;13.15;;
46110;SDS011;31849;55.992;37.252;2023-10-31T05:09:09;34.65;;;16.52;;
46110;SDS011;31849;55.992;37.252;2023-10-31T05:14:13;18.58;;;13.00;;
46110;SDS011;31849;55.992;37.252;2023-10-31T05:19:17;18.92;;;12.45;;
46110;SDS011;31849;55.992;37.252;2023-10-31T05:24:22;49.28;;;18.33;;
46110;SDS011;31849;55.992;37.252;2023-10-31T05:29:26;24.58;;;15.43;;
46110;SDS011;31849;55.992;37.252;2023-10-31T05:34:30;16.67;;;12.60;;
46110;SDS011;31849;55.992;37.252;2023-10-31T05:39:35;22.42;;;12.30;;
46110;SDS011;31849;55.992;37.252;2023-10-31T05:44:39;37.72;;;16.75;;
46110;SDS011;31849;55.992;37.252;2023-10-31T05:49:42;21.77;;;16.10;;
46110;SDS011;31849;55.992;37.252;2023-10-31T05:54:47;17.27;;;13.20;;
46110;SDS011;31849;55.992;37.252;2023-10-31T06:04:54;17.05;;;11.48;;
46110;SDS011;31849;55.992;37.252;2023-10-31T06:09:59;26.42;;;17.88;;
46110;SDS011;31849;55.992;37.252;2023-10-31T06:15:05;18.75;;;13.10;;
46110;SDS011;31849;55.992;37.252;2023-10-31T06:20:10;12.57;;;8.98;;
46110;SDS011;31849;55.992;37.252;2023-10-31T06:25:15;10.55;;;8.07;;
46110;SDS011;31849;55.992;37.252;2023-10-31T06:30:19;9.38;;;7.18;;
46110;SDS011;31849;55.992;37.252;2023-10-31T06:35:29;10.50;;;7.32;;
46110;SDS011;31849;55.992;37.252;2023-10-31T06:40:34;13.43;;;8.43;;
46110;SDS011;31849;55.992;37.252;2023-10-31T06:45:38;10.85;;;8.35;;
46110;SDS011;31849;55.992;37.252;2023-10-31T06:50:41;10.85;;;7.72;;
46110;SDS011;31849;55.992;37.252;2023-10-31T06:55:47;10.75;;;7.97;;
46110;SDS011;31849;55.992;37.252;2023-10-31T07:00:53;10.70;;;8.15;;
46110;SDS011;31849;55.992;37.252;2023-10-31T07:05:56;12.77;;;8.38;;
46110;SDS011;31849;55.992;37.252;2023-10-31T07:11:02;12.40;;;9.52;;
46110;SDS011;31849;55.992;37.252;2023-10-31T07:16:06;14.95;;;9.27;;
46110;SDS011;31849;55.992;37.252;2023-10-31T07:21:10;13.77;;;8.90;;
46110;SDS011;31849;55.992;37.252;2023-10-31T07:26:16;12.17;;;8.70;;
46110;SDS011;31849;55.992;37.252;2023-10-31T07:31:20;11.70;;;8.35;;
46110;SDS011;31849;55.992;37.252;2023-10-31T07:36:23;11.00;;;8.05;;
46110;SDS011;31849;55.992;37.252;2023-10-31T07:41:28;12.43;;;9.20;;
46110;SDS011;31849;55.992;37.252;2023-10-31T07:46:32;14.68;;;10.57;;
46110;SDS011;31849;55.992;37.252;2023-10-31T07:51:36;12.90;;;9.30;;
46110;SDS011;31849;55.992;37.252;2023-10-31T07:56:41;15.80;;;9.43;;
46110;SDS011;31849;55.992;37.252;2023-10-31T08:01:45;13.85;;;9.02;;
46110;SDS011;31849;55.992;37.252;2023-10-31T08:06:52;12.30;;;8.93;;
46110;SDS011;31849;55.992;37.252;2023-10-31T08:11:57;12.85;;;9.88;;
46110;SDS011;31849;55.992;37.252;2023-10-31T08:17:00;13.98;;;8.25;;
46110;SDS011;31849;55.992;37.252;2023-10-31T08:22:04;13.40;;;8.35;;
46110;SDS011;31849;55.992;37.252;2023-10-31T08:27:09;9.82;;;7.97;;
46110;SDS011;31849;55.992;37.252;2023-10-31T08:32:14;10.60;;;7.50;;
46110;SDS011;31849;55.992;37.252;2023-10-31T08:37:18;9.10;;;6.70;;
46110;SDS011;31849;55.992;37.252;2023-10-31T08:42:23;9.20;;;7.10;;
46110;SDS011;31849;55.992;37.252;2023-10-31T08:47:28;8.90;;;6.60;;
46110;SDS011;31849;55.992;37.252;2023-10-31T08:52:32;10.87;;;6.23;;
46110;SDS011;31849;55.992;37.252;2023-10-31T08:57:36;10.80;;;6.53;;
46110;SDS011;31849;55.992;37.252;2023-10-31T09:02:40;9.50;;;6.47;;
46110;SDS011;31849;55.992;37.252;2023-10-31T09:07:44;10.27;;;6.88;;
46110;SDS011;31849;55.992;37.252;2023-10-31T09:12:50;9.93;;;7.10;;
46110;SDS011;31849;55.992;37.252;2023-10-31T09:17:53;11.25;;;6.68;;
46110;SDS011;31849;55.992;37.252;2023-10-31T09:22:57;8.55;;;6.10;;
46110;SDS011;31849;55.992;37.252;2023-10-31T09:28:02;9.43;;;5.75;;
46110;SDS011;31849;55.992;37.252;2023-10-31T09:33:05;7.03;;;5.18;;
46110;SDS011;31849;55.992;37.252;2023-10-31T09:38:09;8.47;;;5.27;;
46110;SDS011;31849;55.992;37.252;2023-10-31T09:43:14;7.35;;;4.88;;
46110;SDS011;31849;55.992;37.252;2023-10-31T09:48:18;7.40;;;4.50;;
46110;SDS011;31849;55.992;37.252;2023-10-31T09:53:22;5.65;;;4.47;;
46110;SDS011;31849;55.992;37.252;2023-10-31T09:58:28;7.47;;;4.57;;
46110;SDS011;31849;55.992;37.252;2023-10-31T10:03:32;8.50;;;4.45;;
46110;SDS011;31849;55.992;37.252;2023-10-31T10:08:36;5.53;;;4.13;;
46110;SDS011;31849;55.992;37.252;2023-10-31T10:13:42;10.68;;;4.97;;
46110;SDS011;31849;55.992;37.252;2023-10-31T10:18:46;8.02;;;5.00;;
46110;SDS011;31849;55.992;37.252;2023-10-31T10:23:51;6.88;;;4.65;;
46110;SDS011;31849;55.992;37.252;2023-10-31T10:28:56;9.00;;;3.85;;
46110;SDS011;31849;55.992;37.252;2023-10-31T10:34:00;5.53;;;2.60;;
46110;SDS011;31849;55.992;37.252;2023-10-31T10:39:06;5.07;;;3.10;;
46110;SDS011;31849;55.992;37.252;2023-10-31T10:44:12;5.53;;;3.60;;
46110;SDS011;31849;55.992;37.252;2023-10-31T10:49:18;5.07;;;3.22;;
46110;SDS011;31849;55.992;37.252;2023-10-31T10:54:30;5.10;;;3.70;;
46110;SDS011;31849;55.992;37.252;2023-10-31T10:59:41;4.85;;;2.92;;
46110;SDS011;31849;55.992;37.252;2023-10-31T11:04:45;3.20;;;2.10;;
46110;SDS011;31849;55.992;37.252;2023-10-31T11:09:51;2.50;;;1.90;;
46110;SDS011;31849;55.992;37.252;2023-10-31T11:14:56;3.97;;;2.45;;
46110;SDS011;31849;55.992;37.252;2023-10-31T11:20:03;3.72;;;1.95;;
46110;SDS011;31849;55.992;37.252;2023-10-31T11:25:10;3.38;;;1.88;;
46110;SDS011;31849;55.992;37.252;2023-10-31T11:30:28;3.00;;;1.83;;
46110;SDS011;31849;55.992;37.252;2023-10-31T11:35:33;2.42;;;1.60;;
46110;SDS011;31849;55.992;37.252;2023-10-31T11:40:37;3.40;;;1.50;;
46110;SDS011;31849;55.992;37.252;2023-10-31T11:45:42;2.77;;;1.60;;
46110;SDS011;31849;55.992;37.252;2023-10-31T11:50:49;3.00;;;1.63;;
46110;SDS011;31849;55.992;37.252;2023-10-31T11:55:56;3.45;;;1.70;;
46110;SDS011;31849;55.992;37.252;2023-10-31T12:01:02;2.70;;;1.60;;
46110;SDS011;31849;55.992;37.252;2023-10-31T12:06:07;2.67;;;1.60;;
46110;SDS011;31849;55.992;37.252;2023-10-31T12:11:12;2.75;;;1.73;;
46110;SDS011;31849;55.992;37.252;2023-10-31T12:16:19;2.25;;;1.50;;
46110;SDS011;31849;55.992;37.252;2023-10-31T12:21:35;2.88;;;1.83;;
46110;SDS011;31849;55.992;37.252;2023-10-31T12:26:40;3.20;;;2.00;;
46110;SDS011;31849;55.992;37.252;2023-10-31T12:31:46;3.13;;;1.95;;
46110;SDS011;31849;55.992;37.252;2023-10-31T12:36:52;3.85;;;1.88;;
46110;SDS011;31849;55.992;37.252;2023-10-31T12:41:56;5.47;;;2.30;;
46110;SDS011;31849;55.992;37.252;2023-10-31T12:47:02;3.30;;;2.37;;
46110;SDS011;31849;55.992;37.252;2023-10-31T12:52:10;4.70;;;1.90;;
46110;SDS011;31849;55.992;37.252;2023-10-31T12:57:14;3.10;;;2.50;;
46110;SDS011;31849;55.992;37.252;2023-10-31T13:02:19;4.32;;;2.78;;
46110;SDS011;31849;55.992;37.252;2023-10-31T13:07:26;4.75;;;2.75;;
46110;SDS011;31849;55.992;37.252;2023-10-31T13:12:30;7.20;;;4.22;;
46110;SDS011;31849;55.992;37.252;2023-10-31T13:17:35;5.82;;;3.40;;
46110;SDS011;31849;55.992;37.252;2023-10-31T13:22:40;6.00;;;4.25;;
46110;SDS011;31849;55.992;37.252;2023-10-31T13:27:44;9.30;;;5.40;;
46110;SDS011;31849;55.992;37.252;2023-10-31T13:32:54;10.35;;;8.27;;
46110;SDS011;31849;55.992;37.252;2023-10-31T13:37:59;28.95;;;26.08;;
46110;SDS011;31849;55.992;37.252;2023-10-31T13:43:03;15.52;;;11.20;;
46110;SDS011;31849;55.992;37.252;2023-10-31T13:48:08;10.68;;;8.00;;
46110;SDS011;31849;55.992;37.252;2023-10-31T13:53:14;8.20;;;7.07;;
46110;SDS011;31849;55.992;37.252;2023-10-31T13:58:18;11.03;;;6.90;;
46110;SDS011;31849;55.992;37.252;2023-10-31T14:03:23;9.00;;;6.60;;
46110;SDS011;31849;55.992;37.252;2023-10-31T14:08:27;11.75;;;7.93;;
46110;SDS011;31849;55.992;37.252;2023-10-31T14:13:31;13.13;;;8.82;;
46110;SDS011;31849;55.992;37.252;2023-10-31T14:18:36;12.02;;;6.85;;
46110;SDS011;31849;55.992;37.252;2023-10-31T14:23:39;12.80;;;7.18;;
46110;SDS011;31849;55.992;37.252;2023-10-31T14:28:43;13.32;;;9.57;;
46110;SDS011;31849;55.992;37.252;2023-10-31T14:33:48;15.48;;;10.23;;
46110;SDS011;31849;55.992;37.252;2023-10-31T14:38:52;27.35;;;20.92;;
46110;SDS011;31849;55.992;37.252;2023-10-31T14:43:56;28.67;;;19.80;;
46110;SDS011;31849;55.992;37.252;2023-10-31T14:49:01;34.80;;;22.17;;
46110;SDS011;31849;55.992;37.252;2023-10-31T14:54:05;36.13;;;23.67;;
46110;SDS011;31849;55.992;37.252;2023-10-31T14:59:09;53.85;;;36.58;;
46110;SDS011;31849;55.992;37.252;2023-10-31T15:04:14;47.50;;;32.72;;
46110;SDS011;31849;55.992;37.252;2023-10-31T15:09:18;41.97;;;25.83;;
46110;SDS011;31849;55.992;37.252;2023-10-31T15:14:22;46.95;;;27.17;;
46110;SDS011;31849;55.992;37.252;2023-10-31T15:19:27;45.65;;;27.63;;
46110;SDS011;31849;55.992;37.252;2023-10-31T15:29:35;46.97;;;29.02;;
46110;SDS011;31849;55.992;37.252;2023-10-31T15:34:41;46.22;;;28.88;;
46110;SDS011;31849;55.992;37.252;2023-10-31T15:39:45;44.00;;;26.80;;
46110;SDS011;31849;55.992;37.252;2023-10-31T15:44:50;36.42;;;23.45;;
46110;SDS011;31849;55.992;37.252;2023-10-31T15:49:58;38.10;;;24.60;;
46110;SDS011;31849;55.992;37.252;2023-10-31T15:55:02;39.83;;;24.42;;
46110;SDS011;31849;55.992;37.252;2023-10-31T16:00:07;41.38;;;24.88;;
46110;SDS011;31849;55.992;37.252;2023-10-31T16:05:14;33.33;;;23.85;;
46110;SDS011;31849;55.992;37.252;2023-10-31T16:10:17;37.13;;;23.88;;
46110;SDS011;31849;55.992;37.252;2023-10-31T16:15:21;34.10;;;23.42;;
46110;SDS011;31849;55.992;37.252;2023-10-31T16:20:26;32.55;;;23.55;;
46110;SDS011;31849;55.992;37.252;2023-10-31T16:30:33;36.55;;;23.88;;
46110;SDS011;31849;55.992;37.252;2023-10-31T16:35:38;37.25;;;24.98;;
46110;SDS011;31849;55.992;37.252;2023-10-31T16:40:41;34.97;;;24.77;;
46110;SDS011;31849;55.992;37.252;2023-10-31T16:45:45;36.78;;;24.92;;
46110;SDS011;31849;55.992;37.252;2023-10-31T16:50:50;38.10;;;24.58;;
46110;SDS011;31849;55.992;37.252;2023-10-31T17:00:57;44.92;;;26.48;;
46110;SDS011;31849;55.992;37.252;2023-10-31T17:06:02;42.08;;;25.67;;
46110;SDS011;31849;55.992;37.252;2023-10-31T17:11:06;47.25;;;27.65;;
46110;SDS011;31849;55.992;37.252;2023-10-31T17:16:10;41.72;;;26.65;;
46110;SDS011;31849;55.992;37.252;2023-10-31T17:21:15;51.00;;;29.65;;
46110;SDS011;31849;55.992;37.252;2023-10-31T17:26:19;57.03;;;27.98;;
46110;SDS011;31849;55.992;37.252;2023-10-31T17:31:23;59.33;;;30.00;;
46110;SDS011;31849;55.992;37.252;2023-10-31T17:36:28;62.45;;;31.38;;
46110;SDS011;31849;55.992;37.252;2023-10-31T17:41:33;68.25;;;33.72;;
46110;SDS011;31849;55.992;37.252;2023-10-31T17:46:37;70.28;;;35.63;;
46110;SDS011;31849;55.992;37.252;2023-10-31T17:51:42;80.97;;;39.30;;
46110;SDS011;31849;55.992;37.252;2023-10-31T17:56:45;88.88;;;40.85;;
46110;SDS011;31849;55.992;37.252;2023-10-31T18:01:51;86.85;;;41.97;;
46110;SDS011;31849;55.992;37.252;2023-10-31T18:06:56;97.10;;;43.87;;
46110;SDS011;31849;55.992;37.252;2023-10-31T18:12:00;85.82;;;40.65;;
46110;SDS011;31849;55.992;37.252;2023-10-31T18:17:04;90.22;;;41.90;;
46110;SDS011;31849;55.992;37.252;2023-10-31T18:22:09;90.13;;;41.47;;
46110;SDS011;31849;55.992;37.252;2023-10-31T18:27:13;86.20;;;41.13;;
46110;SDS011;31849;55.992;37.252;2023-10-31T18:32:17;81.85;;;38.90;;
46110;SDS011;31849;55.992;37.252;2023-10-31T18:37:22;70.10;;;36.75;;
46110;SDS011;31849;55.992;37.252;2023-10-31T18:42:26;70.70;;;36.28;;
46110;SDS011;31849;55.992;37.252;2023-10-31T18:47:30;61.13;;;33.27;;
46110;SDS011;31849;55.992;37.252;2023-10-31T18:52:35;67.82;;;34.35;;
46110;SDS011;31849;55.992;37.252;2023-10-31T18:57:40;70.45;;;36.00;;
46110;SDS011;31849;55.992;37.252;2023-10-31T19:02:43;64.03;;;35.03;;
46110;SDS011;31849;55.992;37.252;2023-10-31T19:07:48;70.80;;;36.53;;
46110;SDS011;31849;55.992;37.252;2023-10-31T19:12:53;64.10;;;34.78;;
46110;SDS011;31849;55.992;37.252;2023-10-31T19:17:56;67.30;;;34.42;;
46110;SDS011;31849;55.992;37.252;2023-10-31T19:23:01;62.20;;;33.97;;
46110;SDS011;31849;55.992;37.252;2023-10-31T19:28:07;71.55;;;36.80;;
46110;SDS011;31849;55.992;37.252;2023-10-31T19:33:10;69.90;;;34.72;;
46110;SDS011;31849;55.992;37.252;2023-10-31T19:38:15;72.28;;;37.30;;
46110;SDS011;31849;55.992;37.252;2023-10-31T19:43:19;72.38;;;36.65;;
46110;SDS011;31849;55.992;37.252;2023-10-31T19:48:23;59.88;;;33.60;;
46110;SDS011;31849;55.992;37.252;2023-10-31T19:53:27;64.60;;;35.78;;
46110;SDS011;31849;55.992;37.252;2023-10-31T19:58:32;65.65;;;36.85;;
46110;SDS011;31849;55.992;37.252;2023-10-31T20:03:35;64.10;;;34.13;;
46110;SDS011;31849;55.992;37.252;2023-10-31T20:08:40;68.97;;;35.00;;
46110;SDS011;31849;55.992;37.252;2023-10-31T20:13:44;63.70;;;34.65;;
46110;SDS011;31849;55.992;37.252;2023-10-31T20:18:47;63.90;;;34.28;;
46110;SDS011;31849;55.992;37.252;2023-10-31T20:23:52;62.95;;;33.80;;
46110;SDS011;31849;55.992;37.252;2023-10-31T20:33:59;68.90;;;34.95;;
46110;SDS011;31849;55.992;37.252;2023-10-31T20:39:05;63.38;;;33.42;;
46110;SDS011;31849;55.992;37.252;2023-10-31T20:44:08;63.70;;;35.58;;
46110;SDS011;31849;55.992;37.252;2023-10-31T20:49:12;78.32;;;47.38;;
46110;SDS011;31849;55.992;37.252;2023-10-31T20:54:17;74.57;;;46.75;;
46110;SDS011;31849;55.992;37.252;2023-10-31T21:04:24;76.30;;;47.20;;
46110;SDS011;31849;55.992;37.252;2023-10-31T21:09:29;78.30;;;46.42;;
46110;SDS011;31849;55.992;37.252;2023-10-31T21:14:32;66.47;;;45.28;;
46110;SDS011;31849;55.992;37.252;2023-10-31T21:19:36;61.28;;;39.13;;
46110;SDS011;31849;55.992;37.252;2023-10-31T21:24:41;60.25;;;42.65;;
46110;SDS011;31849;55.992;37.252;2023-10-31T21:29:44;57.47;;;36.72;;
46110;SDS011;31849;55.992;37.252;2023-10-31T21:34:48;52.83;;;35.05;;
46110;SDS011;31849;55.992;37.252;2023-10-31T21:39:53;55.85;;;38.80;;
46110;SDS011;31849;55.992;37.252;2023-10-31T21:44:57;55.28;;;36.17;;
46110;SDS011;31849;55.992;37.252;2023-10-31T21:50:05;53.92;;;38.38;;
46110;SDS011;31849;55.992;37.252;2023-10-31T21:55:11;51.05;;;39.97;;
46110;SDS011;31849;55.992;37.252;2023-10-31T22:00:15;45.90;;;33.95;;
46110;SDS011;31849;55.992;37.252;2023-10-31T22:05:19;53.45;;;34.53;;
46110;SDS011;31849;55.992;37.252;2023-10-31T22:10:24;39.50;;;26.63;;
46110;SDS011;31849;55.992;37.252;2023-10-31T22:15:27;37.30;;;25.70;;
46110;SDS011;31849;55.992;37.252;2023-10-31T22:20:31;35.67;;;23.23;;
46110;SDS011;31849;55.992;37.252;2023-10-31T22:25:36;33.90;;;21.92;;
46110;SDS011;31849;55.992;37.252;2023-10-31T22:30:40;29.10;;;18.92;;
46110;SDS011;31849;55.992;37.252;2023-10-31T22:35:43;27.27;;;18.25;;
46110;SDS011;31849;55.992;37.252;2023-10-31T22:40:48;30.38;;;19.08;;
46110;SDS011;31849;55.992;37.252;2023-10-31T22:45:52;31.08;;;18.23;;
46110;SDS011;31849;55.992;37.252;2023-10-31T22:50:55;27.40;;;18.33;;
46110;SDS011;31849;55.992;37.252;2023-10-31T22:56:00;30.23;;;17.92;;
46110;SDS011;31849;55.992;37.252;2023-10-31T23:01:04;28.05;;;17.63;;
46110;SDS011;31849;55.992;37.252;2023-10-31T23:06:09;30.58;;;18.75;;
46110;SDS011;31849;55.992;37.252;2023-10-31T23:11:14;29.85;;;17.25;;
46110;SDS011;31849;55.992;37.252;2023-10-31T23:16:17;27.80;;;17.88;;
46110;SDS011;31849;55.992;37.252;2023-10-31T23:21:21;29.83;;;18.88;;
46110;SDS011;31849;55.992;37.252;2023-10-31T23:26:26;28.77;;;17.92;;
46110;SDS011;31849;55.992;37.252;2023-10-31T23:31:29;26.45;;;19.17;;
46110;SDS011;31849;55.992;37.252;2023-10-31T23:36:33;31.38;;;19.98;;
46110;SDS011;31849;55.992;37.252;2023-10-31T23:41:38;32.93;;;21.20;;
46110;SDS011;31849;55.992;37.252;2023-10-31T23:46:43;35.42;;;20.45;;
46110;SDS011;31849;55.992;37.252;2023-10-31T23:51:46;32.47;;;19.15;;
46110;SDS011;31849;55.992;37.252;2023-10-31T23:56:51;37.15;;;20.05;;
